Time;durP1;ratioP1;P1;durP2;ratioP2;P2;SDS_P1;SDS_P2;PMS_P1;PMS_P2;Temp;Humidity;BMP_temperature;BMP_pressure;BME280_temperature;BME280_humidity;BME280_pressure;Samples;Min_cycle;Max_cycle;Signal;HPM_P1;HPM_P2
2022/08/19 00:01:29;;;;;;;1.77;1.52;;;;;24.60;101211.00;;;;5071858;28;20206;-78
2022/08/19 00:03:57;;;;;;;1.80;1.70;;;;;24.60;101203.00;;;;5080265;28;20260;-78
2022/08/19 00:06:24;;;;;;;1.80;1.70;;;;;24.60;101211.00;;;;5090161;28;20217;-78
2022/08/19 00:08:52;;;;;;;1.90;1.60;;;;;24.60;101215.00;;;;5089772;28;20201;-78
2022/08/19 00:11:20;;;;;;;2.30;1.60;;;;;24.50;101214.00;;;;5090534;28;20238;-78
2022/08/19 00:13:49;;;;;;;2.38;2.17;;;;;24.50;101212.00;;;;5095045;28;20317;-78
2022/08/19 00:16:19;;;;;;;2.10;1.95;;;;;24.50;101215.00;;;;5091476;28;20589;-78
2022/08/19 00:18:46;;;;;;;1.73;1.63;;;;;24.50;101215.00;;;;5089059;28;20194;-78
2022/08/19 00:21:14;;;;;;;2.30;1.50;;;;;24.40;101212.00;;;;5091686;28;20209;-78
2022/08/19 00:23:42;;;;;;;1.70;1.60;;;;;24.40;101216.00;;;;5090664;28;20683;-78
2022/08/19 00:26:11;;;;;;;2.17;1.75;;;;;24.40;101213.00;;;;5091295;28;20292;-79
2022/08/19 00:28:39;;;;;;;3.78;1.80;;;;;24.40;101216.00;;;;5090109;28;20198;-78
2022/08/19 00:31:07;;;;;;;4.30;1.58;;;;;24.40;101207.00;;;;5105806;28;20198;-78
2022/08/19 00:33:36;;;;;;;3.65;1.98;;;;;24.30;101216.00;;;;5090445;28;20206;-79
2022/08/19 00:36:08;;;;;;;3.88;1.65;;;;;24.30;101211.00;;;;5091120;28;20588;-78
2022/08/19 00:38:36;;;;;;;1.70;1.60;;;;;24.30;101209.00;;;;5088688;28;20198;-79
2022/08/19 00:41:04;;;;;;;1.55;1.45;;;;;24.30;101209.00;;;;5091492;28;20198;-78
2022/08/19 00:43:32;;;;;;;1.98;1.65;;;;;24.20;101211.00;;;;5091072;28;20285;-79
2022/08/19 00:46:01;;;;;;;2.58;2.33;;;;;24.30;101212.00;;;;5108471;28;20205;-79
2022/08/19 00:48:28;;;;;;;2.88;1.90;;;;;24.20;101208.00;;;;5085944;28;20580;-78
2022/08/19 00:50:57;;;;;;;1.85;1.75;;;;;24.20;101209.00;;;;5091120;28;20195;-78
2022/08/19 00:53:29;;;;;;;1.70;1.60;;;;;24.20;101209.00;;;;5089588;28;20691;-79
2022/08/19 00:55:58;;;;;;;1.88;1.67;;;;;24.20;101210.00;;;;5087460;28;20218;-78
2022/08/19 00:58:29;;;;;;;2.05;1.75;;;;;24.10;101207.00;;;;5088228;28;20206;-78
2022/08/19 01:00:56;;;;;;;2.53;1.92;;;;;24.10;101215.00;;;;5094178;28;20198;-79
2022/08/19 01:03:24;;;;;;;1.35;1.25;;;;;24.10;101215.00;;;;5089618;28;20195;-78
2022/08/19 01:05:53;;;;;;;1.73;1.30;;;;;24.10;101213.00;;;;5089043;28;20203;-79
2022/08/19 01:08:22;;;;;;;1.50;1.33;;;;;24.10;101218.00;;;;5087872;28;20194;-79
2022/08/19 01:10:52;;;;;;;2.78;1.70;;;;;24.00;101214.00;;;;5087179;28;20948;-79
2022/08/19 01:13:23;;;;;;;2.17;1.90;;;;;24.00;101207.00;;;;5087823;28;20221;-78
2022/08/19 01:15:54;;;;;;;1.45;1.35;;;;;24.00;101215.00;;;;5096882;28;20228;-78
2022/08/19 01:18:22;;;;;;;1.67;1.58;;;;;24.00;101204.00;;;;5087420;28;20190;-79
2022/08/19 01:20:49;;;;;;;1.70;1.60;;;;;24.00;101206.00;;;;5077715;28;20242;-79
2022/08/19 01:23:18;;;;;;;2.45;1.50;;;;;23.90;101199.00;;;;5086794;28;20218;-78
2022/08/19 01:25:49;;;;;;;3.22;1.75;;;;;23.90;101214.00;;;;5084197;28;20206;-78
2022/08/19 01:28:18;;;;;;;1.50;1.40;;;;;23.90;101209.00;;;;5091806;28;20185;-78
2022/08/19 01:30:47;;;;;;;2.42;1.55;;;;;23.90;101212.00;;;;5088123;28;20202;-79
2022/08/19 01:33:14;;;;;;;2.00;1.80;;;;;23.90;101216.00;;;;5088071;28;20569;-78
2022/08/19 01:35:42;;;;;;;2.00;1.80;;;;;23.90;101218.00;;;;5088397;28;20226;-78
2022/08/19 01:38:23;;;;;;;2.10;1.42;;;;;23.80;101224.00;;;;5088151;28;20194;-79
2022/08/19 01:40:52;;;;;;;2.30;1.50;;;;;23.80;101225.00;;;;5089240;28;20284;-80
2022/08/19 01:43:20;;;;;;;2.05;1.90;;;;;23.80;101217.00;;;;5089027;28;20680;-80
2022/08/19 01:45:48;;;;;;;3.60;2.45;;;;;23.80;101216.00;;;;5089747;28;20309;-79
2022/08/19 01:48:15;;;;;;;3.30;1.63;;;;;23.80;101210.00;;;;5087185;28;20210;-79
2022/08/19 01:50:42;;;;;;;1.83;1.73;;;;;23.80;101208.00;;;;5086597;28;20210;-80
2022/08/19 01:53:12;;;;;;;1.63;1.50;;;;;23.70;101210.00;;;;5089147;28;20202;-79
2022/08/19 01:55:42;;;;;;;2.08;1.80;;;;;23.70;101218.00;;;;5095091;28;20251;-80
2022/08/19 01:58:15;;;;;;;2.05;1.92;;;;;23.70;101209.00;;;;5090964;28;20220;-79
2022/08/19 02:00:43;;;;;;;3.47;1.52;;;;;23.70;101212.00;;;;5086322;28;20252;-80
2022/08/19 02:03:11;;;;;;;1.70;1.60;;;;;23.70;101207.00;;;;5086208;28;20204;-80
2022/08/19 02:05:38;;;;;;;1.75;1.55;;;;;23.70;101216.00;;;;5087909;28;20202;-80
2022/08/19 02:08:07;;;;;;;1.83;1.65;;;;;23.60;101208.00;;;;5088740;28;20209;-79
2022/08/19 02:10:34;;;;;;;1.70;1.60;;;;;23.60;101211.00;;;;5086227;28;20276;-79
2022/08/19 02:13:02;;;;;;;1.70;1.50;;;;;23.60;101211.00;;;;5089274;28;20218;-80
2022/08/19 02:15:31;;;;;;;1.65;1.50;;;;;23.60;101218.00;;;;5089399;28;20208;-80
2022/08/19 02:17:59;;;;;;;1.77;1.40;;;;;23.60;101213.00;;;;5086162;28;20200;-79
2022/08/19 02:20:26;;;;;;;1.80;1.45;;;;;23.60;101215.00;;;;5085501;28;20206;-79
2022/08/19 02:22:53;;;;;;;2.20;1.63;;;;;23.50;101217.00;;;;5077861;28;20202;-79
2022/08/19 02:25:21;;;;;;;1.52;1.42;;;;;23.50;101213.00;;;;5088532;28;20717;-79
2022/08/19 02:27:48;;;;;;;1.98;1.73;;;;;23.50;101225.00;;;;5087633;28;21002;-79
2022/08/19 02:30:17;;;;;;;2.13;1.85;;;;;23.50;101218.00;;;;5089020;28;20199;-80
2022/08/19 02:32:46;;;;;;;2.97;1.70;;;;;23.50;101215.00;;;;5088815;28;20190;-80
2022/08/19 02:35:14;;;;;;;1.83;1.33;;;;;23.50;101223.00;;;;5084938;28;20207;-80
2022/08/19 02:40:27;;;;;;;2.80;1.90;;;;;23.40;101231.00;;;;5087985;28;20205;-80
2022/08/19 02:42:55;;;;;;;1.67;1.58;;;;;23.40;101227.00;;;;5088814;28;20218;-80
2022/08/19 02:45:22;;;;;;;1.75;1.50;;;;;23.40;101228.00;;;;5087108;28;20205;-80
2022/08/19 02:47:51;;;;;;;2.40;1.83;;;;;23.40;101226.00;;;;5087947;28;20671;-80
2022/08/19 02:50:18;;;;;;;3.90;2.00;;;;;23.40;101220.00;;;;5088677;28;20567;-80
2022/08/19 02:52:46;;;;;;;2.45;2.25;;;;;23.40;101223.00;;;;5088262;28;20220;-80
2022/08/19 02:55:13;;;;;;;2.20;1.85;;;;;23.40;101228.00;;;;5083084;28;20572;-80
2022/08/19 02:57:41;;;;;;;2.03;1.60;;;;;23.30;101230.00;;;;5082328;28;20221;-79
2022/08/19 03:00:11;;;;;;;1.80;1.45;;;;;23.30;101227.00;;;;5077486;28;20203;-80
2022/08/19 03:02:39;;;;;;;2.05;1.85;;;;;23.30;101232.00;;;;5068023;28;20292;-79
2022/08/19 03:05:10;;;;;;;2.45;2.25;;;;;23.30;101224.00;;;;5076527;28;20198;-80
2022/08/19 03:07:38;;;;;;;3.85;2.38;;;;;23.30;101224.00;;;;5087584;28;20271;-80
2022/08/19 03:10:06;;;;;;;3.38;2.88;;;;;23.30;101217.00;;;;5095765;28;20190;-80
2022/08/19 03:12:37;;;;;;;3.30;2.60;;;;;23.20;101213.00;;;;5075168;28;20245;-80
2022/08/19 03:15:07;;;;;;;4.63;2.70;;;;;23.30;101213.00;;;;5086554;28;20209;-80
2022/08/19 03:17:34;;;;;;;3.83;2.42;;;;;23.20;101219.00;;;;5086768;28;20214;-80
2022/08/19 03:20:02;;;;;;;3.50;2.28;;;;;23.20;101209.00;;;;5088119;28;20206;-80
2022/08/19 03:22:30;;;;;;;6.35;2.90;;;;;23.20;101214.00;;;;5088026;28;20200;-80
2022/08/19 03:24:58;;;;;;;3.60;3.05;;;;;23.20;101208.00;;;;5087298;28;20202;-79
2022/08/19 03:27:26;;;;;;;2.65;2.45;;;;;23.20;101202.00;;;;5086295;28;20232;-80
2022/08/19 03:29:54;;;;;;;4.03;2.83;;;;;23.20;101206.00;;;;5088040;28;20209;-79
2022/08/19 03:32:22;;;;;;;4.68;2.92;;;;;23.20;101206.00;;;;5074960;28;20202;-80
2022/08/19 03:34:50;;;;;;;2.92;2.65;;;;;23.20;101207.00;;;;5083273;28;20695;-79
2022/08/19 03:37:18;;;;;;;2.75;2.55;;;;;23.20;101206.00;;;;5084065;28;20232;-80
2022/08/19 03:39:46;;;;;;;3.10;2.80;;;;;23.10;101217.00;;;;5078652;28;20288;-80
2022/08/19 03:42:14;;;;;;;3.65;2.70;;;;;23.10;101214.00;;;;5087263;28;20691;-79
2022/08/19 03:44:44;;;;;;;7.30;3.22;;;;;23.10;101213.00;;;;5086830;28;20538;-80
2022/08/19 03:47:15;;;;;;;6.88;2.92;;;;;23.10;101219.00;;;;5074824;28;20582;-79
2022/08/19 03:49:43;;;;;;;2.92;2.63;;;;;23.10;101212.00;;;;5087513;28;20201;-79
2022/08/19 03:52:10;;;;;;;5.60;3.42;;;;;23.10;101204.00;;;;5088021;28;20205;-79
2022/08/19 03:54:38;;;;;;;3.70;3.28;;;;;23.10;101203.00;;;;5081181;28;20209;-79
2022/08/19 03:57:10;;;;;;;4.00;3.13;;;;;23.00;101212.00;;;;5069803;28;20303;-80
2022/08/19 03:59:39;;;;;;;4.30;3.38;;;;;23.10;101207.00;;;;5072749;28;20644;-79
2022/08/19 04:02:10;;;;;;;4.32;3.92;;;;;23.00;101215.00;;;;5088075;28;20655;-79
2022/08/19 04:04:38;;;;;;;3.95;3.55;;;;;23.00;101210.00;;;;5085863;28;20194;-79
2022/08/19 04:07:06;;;;;;;3.97;3.10;;;;;23.00;101206.00;;;;5086443;28;20195;-79
2022/08/19 04:09:36;;;;;;;4.07;3.65;;;;;23.00;101207.00;;;;5082360;28;20194;-79
2022/08/19 04:12:05;;;;;;;4.57;3.63;;;;;23.00;101202.00;;;;5082906;28;20210;-79
2022/08/19 04:14:34;;;;;;;4.15;3.08;;;;;23.00;101191.00;;;;5083922;28;20203;-79
2022/08/19 04:17:04;;;;;;;3.95;3.58;;;;;23.00;101191.00;;;;5082297;28;20722;-79
2022/08/19 04:19:32;;;;;;;3.60;3.25;;;;;23.00;101195.00;;;;5078793;28;20197;-79
2022/08/19 04:21:59;;;;;;;4.13;3.58;;;;;22.90;101201.00;;;;5081924;28;20209;-78
2022/08/19 04:24:27;;;;;;;6.97;4.38;;;;;22.90;101200.00;;;;5088454;28;20677;-79
2022/08/19 04:26:54;;;;;;;4.18;3.78;;;;;22.90;101204.00;;;;5103164;28;20236;-79
2022/08/19 04:29:26;;;;;;;5.15;4.00;;;;;22.90;101206.00;;;;5085506;28;20191;-79
2022/08/19 04:31:56;;;;;;;4.57;3.45;;;;;22.90;101207.00;;;;5086219;28;20208;-79
2022/08/19 04:34:28;;;;;;;3.97;3.58;;;;;22.90;101205.00;;;;5086907;28;20186;-79
2022/08/19 04:36:57;;;;;;;5.45;3.92;;;;;22.90;101203.00;;;;5085722;28;21540;-80
2022/08/19 04:42:38;;;;;;;5.82;4.45;;;;;22.90;101196.00;;;;5086658;28;20206;-80
2022/08/19 04:45:03;;;;;;;5.15;4.03;;;;;22.80;101189.00;;;;5084046;28;20209;-80
2022/08/19 04:47:32;;;;;;;7.53;4.50;;;;;22.80;101189.00;;;;5089271;28;20202;-79
2022/08/19 04:50:00;;;;;;;6.13;4.90;;;;;22.80;101183.00;;;;5090868;28;20278;-80
2022/08/19 04:52:27;;;;;;;7.18;4.57;;;;;22.80;101192.00;;;;5090208;28;20213;-80
2022/08/19 04:54:55;;;;;;;6.05;5.45;;;;;22.80;101193.00;;;;5090381;28;20205;-80
2022/08/19 04:57:23;;;;;;;5.78;4.30;;;;;22.80;101195.00;;;;5089827;28;20250;-80
2022/08/19 04:59:54;;;;;;;8.07;5.18;;;;;22.80;101193.00;;;;5088812;28;20233;-79
2022/08/19 05:02:24;;;;;;;6.93;4.93;;;;;22.80;101201.00;;;;5072866;28;20547;-79
2022/08/19 05:05:00;;;;;;;6.70;5.57;;;;;22.70;101201.00;;;;5072828;28;20203;-80
2022/08/19 05:07:27;;;;;;;8.80;5.70;;;;;22.80;101213.00;;;;5089029;28;20190;-79
2022/08/19 05:09:55;;;;;;;6.50;5.78;;;;;22.80;101223.00;;;;5090401;28;20211;-80
2022/08/19 05:12:22;;;;;;;7.32;5.70;;;;;22.80;101225.00;;;;5090081;28;20700;-79
2022/08/19 05:14:49;;;;;;;7.68;5.43;;;;;22.80;101215.00;;;;5089219;28;20202;-80
2022/08/19 05:17:17;;;;;;;6.47;5.45;;;;;22.80;101219.00;;;;5101345;28;20233;-79
2022/08/19 05:22:35;;;;;;;6.50;5.07;;;;;22.80;101219.00;;;;5088121;28;20210;-79
2022/08/19 05:25:05;;;;;;;6.68;4.95;;;;;22.80;101220.00;;;;5089134;28;20634;-79
2022/08/19 05:27:32;;;;;;;9.82;5.65;;;;;22.90;101224.00;;;;5088494;28;20726;-79
2022/08/19 05:30:01;;;;;;;5.80;4.82;;;;;22.90;101227.00;;;;5090302;28;20201;-79
2022/08/19 05:32:28;;;;;;;7.55;5.20;;;;;22.90;101228.00;;;;5089848;28;20554;-79
2022/08/19 05:34:56;;;;;;;5.78;5.00;;;;;23.00;101229.00;;;;5087916;28;20198;-79
2022/08/19 05:37:26;;;;;;;6.40;5.18;;;;;23.00;101233.00;;;;5086623;28;20225;-79
2022/08/19 05:39:55;;;;;;;6.00;4.65;;;;;23.00;101231.00;;;;5090325;28;20205;-80
2022/08/19 05:42:23;;;;;;;5.40;4.13;;;;;23.00;101237.00;;;;5089926;28;20190;-79
2022/08/19 05:44:51;;;;;;;5.18;4.68;;;;;23.10;101233.00;;;;5088026;28;20202;-79
2022/08/19 05:47:19;;;;;;;4.38;3.97;;;;;23.10;101232.00;;;;5089621;28;20202;-80
2022/08/19 05:49:47;;;;;;;4.75;4.15;;;;;23.10;101231.00;;;;5089148;28;20205;-80
2022/08/19 05:52:16;;;;;;;8.45;5.00;;;;;23.10;101233.00;;;;5090117;28;20209;-80
2022/08/19 05:54:45;;;;;;;5.05;4.43;;;;;23.20;101221.00;;;;5089302;28;20309;-80
2022/08/19 05:57:14;;;;;;;5.25;4.15;;;;;23.20;101227.00;;;;5087850;28;20222;-79
2022/08/19 05:59:41;;;;;;;4.65;4.18;;;;;23.20;101225.00;;;;5088712;28;20206;-79
2022/08/19 06:02:09;;;;;;;8.45;5.07;;;;;23.30;101222.00;;;;5087937;28;20318;-79
2022/08/19 06:04:37;;;;;;;6.60;4.45;;;;;23.30;101223.00;;;;5091724;28;20198;-79
2022/08/19 06:07:04;;;;;;;5.50;4.55;;;;;23.30;101223.00;;;;5088300;28;20203;-80
2022/08/19 06:09:32;;;;;;;6.32;5.38;;;;;23.40;101223.00;;;;5082820;28;20194;-80
2022/08/19 06:12:01;;;;;;;6.20;5.22;;;;;23.40;101219.00;;;;5088493;28;20229;-80
2022/08/19 06:14:32;;;;;;;6.85;5.20;;;;;23.40;101222.00;;;;5087461;28;20232;-80
2022/08/19 06:17:01;;;;;;;7.22;5.18;;;;;23.50;101229.00;;;;5085268;28;20249;-80
2022/08/19 06:19:30;;;;;;;8.77;6.35;;;;;23.50;101227.00;;;;5089028;28;20255;-80
2022/08/19 06:21:59;;;;;;;7.45;5.55;;;;;23.60;101229.00;;;;5086463;28;20198;-80
2022/08/19 06:24:29;;;;;;;7.30;5.65;;;;;23.60;101235.00;;;;5085507;28;20548;-81
2022/08/19 06:26:58;;;;;;;8.13;6.03;;;;;23.70;101231.00;;;;5086658;28;20218;-80
2022/08/19 06:29:27;;;;;;;8.93;6.32;;;;;23.70;101231.00;;;;5084240;28;20194;-78
2022/08/19 06:31:59;;;;;;;8.43;6.50;;;;;23.70;101225.00;;;;5085123;28;20205;-80
2022/08/19 06:34:28;;;;;;;10.07;7.15;;;;;23.80;101228.00;;;;5087302;28;20202;-80
2022/08/19 06:36:57;;;;;;;8.65;6.85;;;;;23.80;101238.00;;;;5086316;28;20664;-80
2022/08/19 06:39:27;;;;;;;10.07;7.03;;;;;23.90;101232.00;;;;5082504;28;20757;-81
2022/08/19 06:41:58;;;;;;;9.75;6.97;;;;;23.90;101233.00;;;;5083921;28;20199;-79
2022/08/19 06:44:27;;;;;;;12.27;7.75;;;;;24.00;101240.00;;;;5080706;28;20201;-81
2022/08/19 06:46:59;;;;;;;10.90;8.27;;;;;24.00;101241.00;;;;5083378;28;20198;-80
2022/08/19 06:49:30;;;;;;;12.82;9.02;;;;;24.00;101235.00;;;;5086774;28;20194;-81
2022/08/19 06:51:58;;;;;;;12.30;9.13;;;;;24.10;101236.00;;;;5080801;28;20209;-82
2022/08/19 06:54:28;;;;;;;12.30;9.13;;;;;24.10;101235.00;;;;5081255;28;20213;-82
2022/08/19 06:56:56;;;;;;;16.08;9.30;;;;;24.20;101237.00;;;;5083534;28;20198;-81
2022/08/19 06:59:26;;;;;;;16.13;10.85;;;;;24.20;101240.00;;;;5085821;28;20190;-77
2022/08/19 07:01:56;;;;;;;13.23;9.77;;;;;24.30;101249.00;;;;5085273;28;20202;-77
2022/08/19 07:04:28;;;;;;;18.33;10.18;;;;;24.30;101248.00;;;;5082836;28;20198;-77
2022/08/19 07:06:59;;;;;;;16.92;11.30;;;;;24.30;101240.00;;;;5080957;28;20237;-77
2022/08/19 07:09:28;;;;;;;17.33;11.23;;;;;24.40;101235.00;;;;5085656;28;20206;-81
2022/08/19 07:11:56;;;;;;;18.13;12.35;;;;;24.50;101249.00;;;;5084824;28;20210;-80
2022/08/19 07:14:27;;;;;;;16.95;12.77;;;;;24.50;101244.00;;;;5084923;28;20194;-79
2022/08/19 07:16:56;;;;;;;22.10;13.48;;;;;24.50;101254.00;;;;5083480;28;20195;-79
2022/08/19 07:19:27;;;;;;;21.77;13.20;;;;;24.60;101252.00;;;;5078056;28;20198;-78
2022/08/19 07:21:55;;;;;;;20.50;12.55;;;;;24.60;101257.00;;;;5086188;28;20198;-77
2022/08/19 07:24:25;;;;;;;24.30;14.45;;;;;24.70;101248.00;;;;5081527;28;20198;-78
2022/08/19 07:26:54;;;;;;;18.65;13.32;;;;;24.70;101246.00;;;;5084373;28;20705;-79
2022/08/19 07:29:23;;;;;;;20.17;13.43;;;;;24.80;101246.00;;;;5078570;28;20190;-79
2022/08/19 07:31:50;;;;;;;16.77;13.00;;;;;24.80;101248.00;;;;5082041;28;20202;-79
2022/08/19 07:34:18;;;;;;;19.65;13.50;;;;;24.90;101247.00;;;;5082190;28;20214;-78
2022/08/19 07:36:48;;;;;;;21.33;14.38;;;;;24.90;101252.00;;;;5080584;28;20234;-79
2022/08/19 07:39:19;;;;;;;21.55;13.18;;;;;24.90;101250.00;;;;5078996;28;20218;-79
2022/08/19 07:41:47;;;;;;;20.27;13.45;;;;;25.00;101253.00;;;;5076779;28;20205;-79
2022/08/19 07:44:16;;;;;;;18.70;12.32;;;;;25.00;101253.00;;;;5083189;28;20194;-80
2022/08/19 07:46:52;;;;;;;20.17;12.70;;;;;25.00;101260.00;;;;5082279;28;20198;-81
2022/08/19 07:49:21;;;;;;;15.35;12.18;;;;;25.10;101270.00;;;;5085046;28;20233;-81
2022/08/19 07:51:52;;;;;;;21.08;12.98;;;;;25.10;101264.00;;;;5086695;28;20202;-80
2022/08/19 07:54:21;;;;;;;18.83;12.25;;;;;25.10;101270.00;;;;5084841;28;20186;-81
2022/08/19 07:56:49;;;;;;;19.52;12.63;;;;;25.20;101265.00;;;;5085982;28;20699;-80
2022/08/19 07:59:24;;;;;;;22.08;12.93;;;;;25.10;101266.00;;;;5085389;28;20313;-81
2022/08/19 08:01:52;;;;;;;17.38;11.73;;;;;25.30;101269.00;;;;5086788;28;20189;-82
2022/08/19 08:09:54;;;;;;;13.13;10.25;;;;;25.50;101268.00;;;;5086753;28;20206;-78
2022/08/19 08:12:25;;;;;;;16.33;11.90;;;;;25.60;101278.00;;;;5085549;28;20210;-79
2022/08/19 08:14:55;;;;;;;18.48;11.57;;;;;25.60;101280.00;;;;5084034;28;20335;-78
2022/08/19 08:17:26;;;;;;;18.02;12.88;;;;;25.70;101280.00;;;;5081295;28;20195;-79
2022/08/19 08:19:54;;;;;;;16.48;12.27;;;;;25.80;101287.00;;;;5081287;28;20268;-80
2022/08/19 08:25:12;;;;;;;17.05;12.30;;;;;25.90;101287.00;;;;5089373;28;20201;-79
2022/08/19 08:27:41;;;;;;;18.67;11.48;;;;;26.00;101292.00;;;;5089755;28;20241;-78
2022/08/19 08:30:09;;;;;;;15.10;10.45;;;;;26.00;101298.00;;;;5091111;28;20198;-79
2022/08/19 08:32:38;;;;;;;17.95;11.05;;;;;26.10;101303.00;;;;5090967;28;20605;-79
2022/08/19 08:35:06;;;;;;;17.63;10.18;;;;;26.10;101308.00;;;;5090554;28;20221;-79
2022/08/19 08:37:35;;;;;;;15.38;9.48;;;;;26.20;101307.00;;;;5089325;28;20678;-78
2022/08/19 08:40:06;;;;;;;14.10;10.65;;;;;26.20;101306.00;;;;5090468;28;20198;-78
2022/08/19 08:42:40;;;;;;;14.80;8.93;;;;;26.20;101305.00;;;;5087871;28;20307;-80
2022/08/19 08:45:14;;;;;;;11.70;8.23;;;;;26.30;101306.00;;;;5089799;28;20209;-79
2022/08/19 08:47:46;;;;;;;15.13;9.35;;;;;26.40;101315.00;;;;5086243;28;20708;-78
2022/08/19 08:50:20;;;;;;;12.05;9.40;;;;;26.50;101310.00;;;;5099422;28;20236;-80
2022/08/19 08:52:52;;;;;;;13.10;8.40;;;;;26.60;101306.00;;;;5086239;28;20685;-79
2022/08/19 08:55:25;;;;;;;12.43;9.25;;;;;26.60;101306.00;;;;5087046;28;20226;-77
2022/08/19 08:57:57;;;;;;;12.00;8.40;;;;;26.80;101291.00;;;;5078916;28;20229;-80
2022/08/19 09:00:27;;;;;;;15.88;9.23;;;;;26.90;101301.00;;;;5075296;28;20643;-81
2022/08/19 09:02:54;;;;;;;13.38;8.90;;;;;27.10;101298.00;;;;5090078;28;20194;-81
2022/08/19 09:05:23;;;;;;;10.48;8.43;;;;;27.20;101306.00;;;;5089647;28;20202;-81
2022/08/19 09:08:01;;;;;;;13.18;8.50;;;;;27.30;101315.00;;;;5090992;28;20202;-80
2022/08/19 09:10:36;;;;;;;14.60;9.00;;;;;27.40;101313.00;;;;5090748;28;20198;-80
2022/08/19 09:13:13;;;;;;;9.75;7.30;;;;;27.40;101313.00;;;;5089521;28;20214;-81
2022/08/19 09:15:44;;;;;;;16.50;9.00;;;;;27.50;101315.00;;;;5088940;28;20190;-82
2022/08/19 09:18:12;;;;;;;11.90;8.98;;;;;27.60;101315.00;;;;5088759;28;20250;-81
2022/08/19 09:20:39;;;;;;;12.75;8.43;;;;;27.70;101316.00;;;;5090462;28;20189;-80
2022/08/19 09:23:09;;;;;;;13.88;8.73;;;;;27.70;101311.00;;;;5088686;28;20203;-81
2022/08/19 09:25:37;;;;;;;14.15;8.55;;;;;27.70;101313.00;;;;5073800;28;20218;-82
2022/08/19 09:28:05;;;;;;;11.98;8.93;;;;;27.80;101315.00;;;;5077232;28;20223;-81
2022/08/19 09:30:35;;;;;;;10.95;9.02;;;;;27.90;101316.00;;;;5074324;28;20206;-77
2022/08/19 09:33:03;;;;;;;10.27;8.48;;;;;28.00;101319.00;;;;5090625;28;20190;-78
2022/08/19 09:35:31;;;;;;;11.65;8.63;;;;;28.00;101317.00;;;;5086020;28;20214;-78
2022/08/19 09:38:00;;;;;;;12.98;9.00;;;;;28.10;101322.00;;;;5084735;28;20207;-79
2022/08/19 09:40:29;;;;;;;11.90;8.20;;;;;28.10;101324.00;;;;5089090;28;20694;-78
2022/08/19 09:43:02;;;;;;;12.00;8.25;;;;;28.10;101328.00;;;;5088615;28;20193;-80
2022/08/19 09:45:30;;;;;;;16.25;8.13;;;;;28.10;101325.00;;;;5087274;28;20622;-78
2022/08/19 09:47:57;;;;;;;10.02;7.38;;;;;28.10;101324.00;;;;5088655;28;20198;-77
2022/08/19 09:50:25;;;;;;;10.57;7.97;;;;;28.10;101324.00;;;;5087348;28;20206;-78
2022/08/19 09:52:57;;;;;;;12.68;9.23;;;;;28.10;101327.00;;;;5089729;28;20209;-77
2022/08/19 09:55:25;;;;;;;11.13;8.35;;;;;28.10;101328.00;;;;5096416;28;20212;-77
2022/08/19 09:57:56;;;;;;;13.80;8.82;;;;;28.00;101328.00;;;;5088388;28;20890;-78
2022/08/19 10:00:24;;;;;;;13.65;10.15;;;;;28.00;101326.00;;;;5076703;28;20195;-77
2022/08/19 10:02:51;;;;;;;12.48;9.30;;;;;28.00;101321.00;;;;5088321;28;20202;-78
2022/08/19 10:08:03;;;;;;;14.82;10.00;;;;;28.10;101320.00;;;;5084939;28;20205;-80
2022/08/19 10:10:35;;;;;;;15.18;10.73;;;;;28.10;101320.00;;;;5087368;28;20261;-79
2022/08/19 10:13:04;;;;;;;17.10;11.50;;;;;28.20;101324.00;;;;5088050;28;20221;-79
2022/08/19 10:15:31;;;;;;;13.77;12.02;;;;;28.20;101328.00;;;;5085689;28;20219;-80
2022/08/19 10:17:59;;;;;;;17.17;12.75;;;;;28.30;101326.00;;;;5086933;28;20194;-77
2022/08/19 10:20:26;;;;;;;19.02;12.27;;;;;28.40;101320.00;;;;5087075;28;20198;-78
2022/08/19 10:22:54;;;;;;;12.68;10.98;;;;;28.50;101326.00;;;;5088057;28;20198;-78
2022/08/19 10:25:21;;;;;;;14.93;11.65;;;;;28.60;101321.00;;;;5088124;28;20274;-79
2022/08/19 10:27:48;;;;;;;17.13;12.27;;;;;28.60;101322.00;;;;5087780;28;20583;-79
2022/08/19 10:30:18;;;;;;;20.75;13.90;;;;;28.60;101322.00;;;;5088966;28;20198;-80
2022/08/19 10:32:46;;;;;;;15.50;12.60;;;;;28.70;101321.00;;;;5085883;28;20230;-79
2022/08/19 10:35:14;;;;;;;17.42;12.00;;;;;28.70;101321.00;;;;5084584;28;20201;-81
2022/08/19 10:37:42;;;;;;;18.52;12.52;;;;;28.70;101321.00;;;;5083565;28;20293;-79
2022/08/19 10:40:11;;;;;;;15.38;12.60;;;;;28.70;101324.00;;;;5090484;28;20248;-79
2022/08/19 10:42:38;;;;;;;19.92;12.75;;;;;28.80;101317.00;;;;5085690;28;20641;-78
2022/08/19 10:45:07;;;;;;;15.27;11.77;;;;;28.80;101318.00;;;;5085935;28;20283;-78
2022/08/19 10:47:36;;;;;;;17.55;11.98;;;;;28.90;101318.00;;;;5085619;28;20198;-79
2022/08/19 10:52:51;;;;;;;15.00;10.98;;;;;28.90;101324.00;;;;5085654;28;20274;-78
2022/08/19 10:58:10;;;;;;;17.13;12.85;;;;;29.00;101314.00;;;;5078175;28;20292;-76
2022/08/19 11:00:37;;;;;;;17.63;12.65;;;;;29.10;101312.00;;;;5086900;28;20611;-78
2022/08/19 11:03:06;;;;;;;17.38;12.38;;;;;29.10;101312.00;;;;5088087;28;20585;-75
2022/08/19 11:05:34;;;;;;;19.38;12.68;;;;;29.20;101313.00;;;;5088411;28;20194;-76
2022/08/19 11:08:01;;;;;;;19.50;13.50;;;;;29.30;101317.00;;;;5086615;28;20202;-77
2022/08/19 11:10:28;;;;;;;17.58;11.88;;;;;29.30;101319.00;;;;5075856;28;20202;-78
2022/08/19 11:12:55;;;;;;;18.75;13.30;;;;;29.40;101307.00;;;;5087640;28;20225;-78
2022/08/19 11:15:24;;;;;;;18.90;12.93;;;;;29.40;101309.00;;;;5084306;28;20202;-78
2022/08/19 11:17:55;;;;;;;16.27;12.43;;;;;29.50;101307.00;;;;5085518;28;20213;-77
2022/08/19 11:20:24;;;;;;;15.40;12.32;;;;;29.60;101309.00;;;;5084297;28;20237;-77
2022/08/19 11:22:54;;;;;;;20.83;12.65;;;;;29.70;101302.00;;;;5081699;28;20292;-77
2022/08/19 11:25:21;;;;;;;17.33;12.93;;;;;29.80;101306.00;;;;5083802;28;20639;-77
2022/08/19 11:27:50;;;;;;;22.88;13.73;;;;;29.90;101296.00;;;;5083972;28;20230;-76
2022/08/19 11:30:18;;;;;;;14.52;12.15;;;;;30.00;101299.00;;;;5077936;28;20289;-77
2022/08/19 11:32:46;;;;;;;18.35;13.15;;;;;30.10;101298.00;;;;5087122;28;20202;-77
2022/08/19 11:35:14;;;;;;;13.98;11.65;;;;;30.20;101290.00;;;;5087096;28;20194;-76
2022/08/19 11:37:42;;;;;;;16.77;12.48;;;;;30.20;101293.00;;;;5086896;28;20597;-77
2022/08/19 11:40:11;;;;;;;16.90;13.32;;;;;30.30;101285.00;;;;5084693;28;20224;-77
2022/08/19 11:45:29;;;;;;;16.85;11.75;;;;;30.40;101284.00;;;;5062651;28;20224;-77
2022/08/19 11:47:56;;;;;;;19.98;13.80;;;;;30.40;101288.00;;;;5088257;28;20194;-77
2022/08/19 11:50:24;;;;;;;15.65;12.23;;;;;30.40;101301.00;;;;5085860;28;20194;-78
2022/08/19 11:52:55;;;;;;;15.80;11.85;;;;;30.40;101293.00;;;;5091913;28;20217;-79
2022/08/19 11:55:23;;;;;;;13.77;11.38;;;;;30.50;101295.00;;;;5090792;28;20574;-79
2022/08/19 11:57:50;;;;;;;13.40;11.95;;;;;30.50;101291.00;;;;5089574;28;20835;-79
2022/08/19 12:00:18;;;;;;;18.42;13.32;;;;;30.60;101296.00;;;;5090795;28;20229;-80
2022/08/19 12:02:45;;;;;;;17.08;12.32;;;;;30.60;101288.00;;;;5089712;28;20228;-78
2022/08/19 12:05:12;;;;;;;15.48;12.30;;;;;30.60;101283.00;;;;5089636;28;20202;-80
2022/08/19 12:07:43;;;;;;;11.73;10.52;;;;;30.60;101287.00;;;;5105355;28;20678;-79
2022/08/19 12:10:12;;;;;;;15.13;11.70;;;;;30.70;101297.00;;;;5109877;28;20205;-80
2022/08/19 12:12:42;;;;;;;16.33;12.30;;;;;30.70;101295.00;;;;5104515;28;20574;-80
2022/08/19 12:15:11;;;;;;;13.10;11.02;;;;;30.70;101296.00;;;;5089886;28;20194;-80
2022/08/19 12:17:39;;;;;;;12.48;10.32;;;;;30.80;101299.00;;;;5090268;28;20198;-78
2022/08/19 12:20:10;;;;;;;13.93;10.55;;;;;30.80;101298.00;;;;5091544;28;20225;-79
2022/08/19 12:22:37;;;;;;;11.68;9.68;;;;;30.70;101291.00;;;;5090728;28;20194;-79
2022/08/19 12:25:06;;;;;;;11.15;9.55;;;;;30.70;101293.00;;;;5088666;28;20202;-80
2022/08/19 12:27:35;;;;;;;9.25;8.30;;;;;30.70;101295.00;;;;5078082;28;20222;-80
2022/08/19 12:30:03;;;;;;;9.25;8.25;;;;;30.70;101291.00;;;;5091846;28;20247;-78
2022/08/19 12:32:31;;;;;;;11.68;9.18;;;;;30.70;101295.00;;;;5076548;28;20567;-79
2022/08/19 12:34:58;;;;;;;13.70;8.80;;;;;30.60;101287.00;;;;5083923;28;20206;-80
2022/08/19 12:37:25;;;;;;;14.40;9.13;;;;;30.60;101289.00;;;;5089582;28;20657;-79